Terminal Aerodrome Forecast
Issued by NWS

Home | Current Version | Previous Version | Graphics & Text | Print | Product List | Glossary On
Versions: 1 2 3 4 5 6 7 8 9 10 11 12 13 14 15 16 17 18 19 20 21 22 23 24 25 26 27 28 29 30 31 32 33 34
898
FTUS43 KLOT 190239 AAA
TAFORD
TAF AMD
KORD 190239Z 1903/2006 22009KT 6SM BR BKN010
     FM190430 21007KT 3SM BR SCT009
     FM190800 21006KT 1SM BR SCT006
     FM191500 16008KT 6SM BR SCT015 BKN100
     FM192000 10010KT P6SM OVC035
     FM200100 10007KT 3SM -RA SCT010 OVC025=

USA.gov is the U.S. government's official web portal to all federal, state and local government web resources and services.